Latest Weather Observations for Holsworthy

IDN60801

Issued at 6:32 pm EST Thursday 3 September 2015 (issued every 30 minutes, with the page automatically refreshed every 10 minutes)

About weather observations | Map of weather stations | Latest weather observations for NSW | Other Formats
Station Details ID: 066161 Name: HOLSWORTHY AERODROME AWS Lat: -33.99 Lon: 150.95 Height: 68.16 m
Data from the previous 72 hours. | See also: Recent months at Holsworthy
Date/Time
EST
Temp
°C
App
Temp
°C
Dew
Point
Rel
Hum
%
Delta-T
°C
Wind Press
QNH
hPa
Press
MSL
hPa
Rain
since 9 am
mm
Dir
 
Spd
km/h
Gust
km/h
Spd
kts
Gust
kts
03/06:30pm 15.5 11.1 6.5 55 4.4 WSW 19 32 10 17 1010.5 1010.5 0.0
03/06:00pm 15.7 11.1 6.4 54 4.5 SW 20 28 11 15 1010.1 1010.1 0.0
03/05:30pm 16.2 11.1 6.1 51 4.9 SW 22 44 12 24 1009.2 1009.1 0.0
03/05:00pm 16.6 12.5 6.4 51 5.0 SW 17 26 9 14 1008.3 1008.2 0.0
03/04:30pm 17.1 11.3 6.3 49 5.3 WSW 26 39 14 21 1007.5 1007.4 0.0
03/04:00pm 17.3 12.1 5.6 46 5.7 WSW 22 37 12 20 1007.0 1006.9 0.0
03/03:30pm 19.2 13.5 4.9 39 6.9 SW 24 41 13 22 1006.6 1006.5 0.0
03/03:21pm 19.6 13.1 4.9 38 7.2 WSW 28 50 15 27 1006.5 1006.4 0.0
03/03:00pm 18.9 12.2 3.9 37 7.1 W 28 43 15 23 1006.2 1006.1 0.0
03/02:30pm 19.5 13.6 4.0 36 7.4 W 24 37 13 20 1005.8 1005.7 0.0
03/02:00pm 19.0 12.3 3.6 36 7.3 WSW 28 41 15 22 1005.5 1005.4 0.0
03/01:30pm 19.1 12.9 4.5 38 7.0 W 26 43 14 23 1005.3 1005.2 0.0
03/01:19pm 19.1 12.8 5.6 41 6.6 W 28 46 15 25 1005.4 1005.3 0.0
03/01:12pm 18.3 12.8 4.1 39 6.7 W 22 46 12 25 1005.4 1005.3 0.0
03/01:00pm 19.0 15.8 6.8 45 6.2 W 13 22 7 12 1005.4 1005.3 0.0
03/12:30pm 18.0 12.8 5.6 44 6.1 WNW 22 33 12 18 1005.7 1005.6 0.0
03/12:00pm 17.8 12.9 7.0 49 5.4 W 22 35 12 19 1005.9 1005.8 0.0
03/11:30am 17.5 12.9 6.7 49 5.4 W 20 32 11 17 1006.1 1006.0 0.0
03/11:00am 16.5 13.2 9.7 64 3.6 WNW 17 26 9 14 1006.2 1006.1 0.0
03/10:30am 16.0 13.6 9.9 67 3.2 WNW 13 24 7 13 1006.4 1006.3 0.0
03/10:00am 15.1 13.0 9.9 71 2.7 W 11 17 6 9 1006.3 1006.2 0.0
03/09:30am 14.7 13.1 10.3 75 2.3 W 9 15 5 8 1006.2 1006.1 0.0
03/09:00am 13.6 12.1 10.6 82 1.6 W 9 15 5 8 1006.3 1006.2 1.8
03/08:30am 12.2 10.3 10.6 90 0.8 W 11 17 6 9 1006.3 1006.2 1.8
03/08:00am 10.5 8.4 9.7 95 0.4 WSW 11 17 6 9 1005.9 1005.8 1.8
03/07:30am 9.6 8.1 9.1 97 0.2 WSW 7 9 4 5 1005.6 1005.5 1.8
03/07:08am 8.9 7.2 8.5 97 0.2 WSW 7 11 4 6 1005.4 1005.3 1.8
03/07:01am 8.6 7.8 8.2 97 0.2 WSW 2 9 1 5 1005.1 1005.0 1.8
03/07:00am 8.5 7.7 8.1 97 0.2 WSW 2 7 1 4 1005.1 1005.0 1.8
03/06:30am 8.1 6.8 7.5 96 0.3 WSW 4 7 2 4 1005.0 1004.9 1.8
03/06:15am 8.2 6.5 7.6 96 0.3 WSW 6 7 3 4 1005.0 1004.9 1.8
03/06:00am 8.6 6.8 8.0 96 0.3 WSW 7 9 4 5 1004.9 1004.8 1.8
03/05:50am 8.5 6.7 7.9 96 0.3 WSW 7 7 4 4 1004.8 1004.7 1.8
03/05:30am 9.0 7.5 8.4 96 0.3 WSW 6 9 3 5 1004.9 1004.8 1.8
03/05:00am 9.5 7.6 8.9 96 0.3 WSW 9 13 5 7 1005.1 1005.0 1.8
03/04:30am 9.5 8.5 8.7 95 0.4 WSW 4 6 2 3 1004.8 1004.7 1.8
03/04:00am 9.8 8.3 9.0 95 0.4 W 7 9 4 5 1005.5 1005.4 1.8
03/03:30am 10.1 9.9 9.2 94 0.4 CALM 0 0 0 0 1005.5 1005.4 1.8
03/03:00am 10.6 10.5 9.5 93 0.6 CALM 0 0 0 0 1005.8 1005.7 1.8
03/02:30am 10.8 9.1 9.7 93 0.6 SSW 9 11 5 6 1005.8 1005.7 1.8
03/02:00am 10.9 8.9 10.0 94 0.5 SSW 11 15 6 8 1007.5 1007.4 1.8
03/01:30am 11.1 9.5 10.2 94 0.5 S 9 13 5 7 1008.0 1007.9 1.6
03/01:00am 11.1 9.5 10.2 94 0.5 SSW 9 11 5 6 1008.7 1008.6 1.2
03/12:30am 11.1 9.4 9.9 92 0.6 NNW 9 13 5 7 1009.4 1009.4 0.6
03/12:00am 11.6 9.1 9.7 88 1.0 SSE 13 17 7 9 1008.2 1008.1 0.4
 
Date/Time
EST
Temp
°C
App
Temp
°C
Dew
Point
Rel
Hum
%
Delta-T
°C
Wind Press
QNH
hPa
Press
MSL
hPa
Rain
since 9 am
mm
Dir
 
Spd
km/h
Gust
km/h
Spd
kts
Gust
kts
02/11:30pm 11.9 8.8 8.9 82 1.5 W 15 22 8 12 1010.1 1010.1 0.0
02/11:00pm 12.8 11.1 7.7 71 2.5 SE 6 6 3 3 1008.5 1008.4 0.0
02/10:30pm 14.5 12.7 8.0 65 3.3 ESE 7 9 4 5 1008.6 1008.5 0.0
02/10:00pm 13.2 11.7 7.0 66 3.0 ENE 4 6 2 3 1009.5 1009.5 0.0
02/09:30pm 14.6 12.3 7.4 62 3.6 E 9 13 5 7 1009.2 1009.1 0.0
02/09:00pm 14.8 12.9 7.6 62 3.6 ENE 7 9 4 5 1010.1 1010.1 0.0
02/08:30pm 15.3 13.5 7.8 61 3.8 E 7 13 4 7 1010.5 1010.5 0.0
02/08:00pm 15.1 12.6 8.1 63 3.5 E 11 13 6 7 1010.6 1010.6 0.0
02/07:30pm 15.0 12.6 8.5 65 3.3 E 11 15 6 8 1010.9 1010.9 0.0
02/07:00pm 14.9 12.8 8.4 65 3.3 E 9 13 5 7 1011.1 1011.1 0.0
02/06:30pm 15.3 13.2 8.1 62 3.6 E 9 11 5 6 1011.2 1011.2 0.0
02/06:00pm 15.8 13.6 7.8 59 4.0 E 9 13 5 7 1011.1 1011.1 0.0
02/05:30pm 16.6 14.4 7.8 56 4.4 E 9 13 5 7 1011.2 1011.2 0.0
02/05:00pm 18.1 15.7 7.2 49 5.5 E 9 13 5 7 1011.2 1011.2 0.0
02/04:30pm 19.0 15.4 3.2 35 7.4 NNE 11 15 6 8 1011.5 1011.5 0.0
02/04:00pm 19.2 15.8 3.8 36 7.3 NNE 11 17 6 9 1011.4 1011.4 0.0
02/03:30pm 19.1 14.9 3.7 36 7.3 NNE 15 20 8 11 1011.5 1011.5 0.0
02/03:00pm 18.6 15.3 4.4 39 6.8 N 11 17 6 9 1011.9 1011.9 0.0
02/02:30pm 18.2 14.7 3.7 38 6.8 NNE 11 24 6 13 1012.1 1012.1 0.0
02/02:00pm 17.9 13.9 3.0 37 6.9 N 13 20 7 11 1013.0 1013.0 0.0
02/01:30pm 17.4 14.0 6.0 47 5.6 N 13 22 7 12 1013.3 1013.3 0.0
02/01:00pm 16.2 12.7 5.5 49 5.1 NNE 13 17 7 9 1013.9 1013.9 0.0
02/12:30pm 16.0 12.6 5.9 51 4.9 N 13 19 7 10 1014.8 1014.7 0.0
02/12:00pm 15.0 12.6 5.2 52 4.6 N 7 15 4 8 1015.5 1015.4 0.0
02/11:30am 13.9 11.6 5.0 55 4.2 NW 6 9 3 5 1016.0 1015.9 0.0
02/11:00am 13.2 10.8 5.4 59 3.7 NW 7 9 4 5 1016.8 1016.7 0.0
02/10:30am 12.6 9.8 5.3 61 3.4 NW 9 13 5 7 1017.4 1017.3 0.0
02/10:00am 12.2 8.6 5.1 62 3.3 NW 13 19 7 10 1017.8 1017.7 0.0
02/09:30am 11.3 8.2 5.4 67 2.7 WNW 11 15 6 8 1017.9 1017.8 0.0
02/09:00am 10.4 7.8 6.2 75 2.0 W 9 11 5 6 1018.0 1017.9 0.0
02/08:30am 8.4 6.0 5.3 81 1.4 WNW 7 11 4 6 1018.0 1017.9 0.0
02/08:00am 6.8 3.9 4.6 86 1.0 W 9 11 5 6 1018.0 1017.9 0.0
02/07:30am 5.1 2.6 3.9 92 0.5 W 6 7 3 4 1017.8 1017.7 0.0
02/07:00am 3.8 1.0 2.9 94 0.4 W 7 11 4 6 1017.6 1017.5 0.0
02/06:30am 3.7 0.9 3.0 95 0.3 WSW 7 11 4 6 1017.5 1017.4 0.0
02/06:00am 3.0 0.2 1.8 92 0.5 WSW 6 9 3 5 1017.4 1017.3 0.0
02/05:30am 3.4 0.4 2.2 92 0.5 WSW 7 9 4 5 1017.0 1016.9 0.0
02/05:00am 3.9 0.2 2.3 89 0.6 WSW 11 15 6 8 1016.4 1016.3 0.0
02/04:30am 5.1 1.3 1.9 80 1.3 SW 11 17 6 9 1016.3 1016.2 0.0
02/04:00am 5.0 1.5 3.5 90 0.6 SW 11 13 6 7 1016.6 1016.5 0.0
02/03:30am 4.3 1.1 2.8 90 0.6 WSW 9 13 5 7 1016.8 1016.7 0.0
02/03:00am 4.5 1.3 3.2 91 0.5 WSW 9 13 5 7 1016.8 1016.7 0.0
02/02:30am 4.5 1.3 3.0 90 0.6 WSW 9 13 5 7 1016.8 1016.7 0.0
02/02:00am 5.4 2.3 3.6 88 0.8 SW 9 11 5 6 1016.8 1016.7 0.0
02/01:30am 5.8 2.7 3.5 85 1.0 SW 9 9 5 5 1016.9 1016.8 0.0
02/01:00am 7.6 4.2 3.8 77 1.6 SSW 11 13 6 7 1016.9 1016.8 0.0
02/12:30am 8.1 4.9 5.2 82 1.3 SSW 11 15 6 8 1016.7 1016.6 0.0
02/12:00am 6.1 2.8 4.3 88 0.8 SW 11 15 6 8 1016.7 1016.6 0.0
 
Date/Time
EST
Temp
°C
App
Temp
°C
Dew
Point
Rel
Hum
%
Delta-T
°C
Wind Press
QNH
hPa
Press
MSL
hPa
Rain
since 9 am
mm
Dir
 
Spd
km/h
Gust
km/h
Spd
kts
Gust
kts
01/11:30pm 6.7 3.3 4.2 84 1.1 SW 11 13 6 7 1016.5 1016.4 0.0
01/11:00pm 8.5 5.2 4.3 75 1.8 SW 11 15 6 8 1016.4 1016.3 0.0
01/10:30pm 9.5 6.1 5.9 78 1.7 SW 13 20 7 11 1016.4 1016.3 0.0
01/10:00pm 8.4 5.3 5.5 82 1.3 SW 11 15 6 8 1016.4 1016.3 0.0
01/09:30pm 7.5 4.4 5.5 87 0.9 WSW 11 15 6 8 1016.2 1016.1 0.0
01/09:00pm 8.0 5.6 5.1 82 1.3 WSW 7 11 4 6 1015.8 1015.7 0.0
01/08:30pm 9.3 7.4 4.9 74 2.0 SSE 4 9 2 5 1015.5 1015.4 0.0
01/08:00pm 10.4 8.1 5.6 72 2.2 SSE 7 11 4 6 1015.1 1015.0 0.0
01/07:30pm 10.8 8.1 5.6 70 2.4 SSE 9 11 5 6 1014.9 1014.8 0.0
01/07:00pm 11.2 8.5 5.7 69 2.6 SSE 9 9 5 5 1014.7 1014.6 0.0
01/06:30pm 11.3 8.8 5.0 65 2.9 SE 7 11 4 6 1014.4 1014.3 0.0
01/06:00pm 13.1 10.8 5.5 60 3.6 ESE 7 11 4 6 1014.0 1014.0 0.0
01/05:30pm 14.1 10.6 5.5 56 4.1 ESE 13 17 7 9 1013.7 1013.7 0.0
01/05:00pm 15.2 11.3 5.4 52 4.7 ESE 15 19 8 10 1013.5 1013.5 0.0
01/04:30pm 16.1 11.9 5.7 50 5.0 ESE 17 22 9 12 1013.1 1013.1 0.0
01/04:00pm 16.7 12.8 5.3 47 5.5 ESE 15 20 8 11 1013.1 1013.1 0.0
01/03:30pm 16.7 12.0 5.0 46 5.6 E 19 24 10 13 1013.0 1013.0 0.0
01/03:00pm 17.7 14.2 5.3 44 6.0 E 13 20 7 11 1013.0 1013.0 0.0
01/02:30pm 19.1 15.2 1.1 30 8.1 WSW 11 15 6 8 1012.9 1012.9 0.0
01/02:00pm 18.9 15.5 1.9 32 7.8 SW 9 17 5 9 1013.0 1013.0 0.0
01/01:30pm 18.6 14.3 3.3 36 7.2 SW 15 24 8 13 1013.2 1013.2 0.0
01/01:00pm 17.5 14.1 1.9 35 7.0 SW 9 20 5 11 1013.6 1013.6 0.0
01/12:30pm 17.0 13.1 1.4 35 6.9 WSW 11 20 6 11 1014.4 1014.3 0.0
01/12:00pm 16.4 12.1 3.1 41 6.1 W 15 20 8 11 1014.8 1014.7 0.0
01/11:30am 16.0 12.2 4.1 45 5.5 WSW 13 22 7 12 1015.3 1015.2 0.0
01/11:00am 14.9 11.8 3.7 47 5.1 WSW 9 17 5 9 1015.6 1015.5 0.0
01/10:30am 14.5 11.2 4.5 51 4.6 SW 11 17 6 9 1015.8 1015.7 0.0
01/10:00am 13.8 9.6 3.6 50 4.6 WSW 15 20 8 11 1016.0 1015.9 0.0
01/09:30am 13.2 8.8 4.6 56 4.0 WSW 17 26 9 14 1016.0 1016.0 0.0
01/09:00am 12.0 7.2 4.5 60 3.4 WSW 19 24 10 13 1016.0 1016.0 0.0
01/08:30am 11.0 7.8 5.3 68 2.6 SW 11 15 6 8 1016.1 1016.1 0.0
01/08:00am 9.3 7.0 5.5 77 1.7 SW 7 11 4 6 1016.1 1016.1 0.0
01/07:30am 7.4 5.2 5.2 86 1.0 WSW 6 7 3 4 1015.9 1015.9 0.0
01/07:00am 5.6 3.1 4.7 94 0.4 WSW 7 7 4 4 1015.5 1015.5 0.0
01/06:30am 4.1 1.3 3.2 94 0.4 SW 7 9 4 5 1015.3 1015.3 0.0
01/06:00am 3.8 0.9 2.8 93 0.4 WSW 7 9 4 5 1015.3 1015.3 0.0
01/05:30am 4.4 2.2 3.4 93 0.4 WSW 4 7 2 4 1014.9 1014.9 0.0
01/05:00am 4.7 2.5 3.5 92 0.5 SSW 4 6 2 3 1014.7 1014.7 0.0
01/04:30am 4.5 1.7 3.3 92 0.5 WSW 7 7 4 4 1014.6 1014.6 0.0
01/04:00am 4.5 1.7 3.0 90 0.6 SW 7 7 4 4 1014.6 1014.6 0.0
01/03:30am 5.0 2.3 3.7 91 0.5 SSW 7 9 4 5 1014.5 1014.5 0.0
01/03:00am 5.3 2.8 3.8 90 0.6 SSW 6 7 3 4 1014.7 1014.7 0.0
01/02:30am 5.4 2.9 3.7 89 0.7 SSW 6 7 3 4 1014.8 1014.8 0.0
01/02:00am 6.0 3.6 4.3 89 0.7 SSW 6 6 3 3 1015.1 1015.1 0.0
01/01:30am 5.4 3.2 3.4 87 0.8 SW 4 7 2 4 1015.2 1015.2 0.0
01/01:00am 7.8 5.3 4.7 81 1.4 SW 7 11 4 6 1015.4 1015.4 0.0
01/12:30am 7.4 4.5 4.9 84 1.1 SW 9 11 5 6 1015.4 1015.4 0.0
01/12:00am 7.1 4.3 5.1 87 0.9 SW 9 11 5 6 1015.7 1015.7 0.0
 
Date/Time
EST
Temp
°C
App
Temp
°C
Dew
Point
Rel
Hum
%
Delta-T
°C
Wind Press
QNH
hPa
Press
MSL
hPa
Rain
since 9 am
mm
Dir
 
Spd
km/h
Gust
km/h
Spd
kts
Gust
kts
31/11:30pm 7.2 4.5 5.5 89 0.8 WSW 9 11 5 6 1015.7 1015.7 0.0
31/11:00pm 8.3 5.7 6.3 87 0.9 SW 9 11 5 6 1015.8 1015.8 0.0
31/10:30pm 8.6 6.0 6.2 85 1.1 WSW 9 13 5 7 1015.9 1015.9 0.0
31/10:00pm 9.2 6.0 6.8 85 1.1 SW 13 15 7 8 1016.0 1016.0 0.0
31/09:30pm 9.8 7.0 7.1 83 1.3 SW 11 13 6 7 1016.0 1016.0 0.0
31/09:00pm 10.8 8.4 7.1 78 1.8 WSW 9 20 5 11 1015.8 1015.8 0.0
31/08:30pm 9.6 7.2 7.0 84 1.2 SW 9 11 5 6 1015.7 1015.7 0.0
31/08:00pm 9.7 7.3 7.0 83 1.3 SW 9 15 5 8 1015.6 1015.6 0.0
31/07:30pm 11.3 9.3 6.4 72 2.3 W 6 7 3 4 1015.3 1015.3 0.0
31/07:00pm 11.2 9.2 6.9 75 2.0 WSW 7 15 4 8 1015.0 1015.0 0.0

Other Formats:

Comma delimited format used in spreadsheet applications
http://www.bom.gov.au/fwo/IDN60801/IDN60801.95761.axf

JavaScript Object Notation format (JSON) in row-major order
http://www.bom.gov.au/fwo/IDN60801/IDN60801.95761.json